createdAt,value
2018-06-22T00:02:08.570Z,2.20
2018-06-22T00:04:36.953Z,2.80
2018-06-22T00:07:05.592Z,2.17
2018-06-22T00:09:33.945Z,2.13
2018-06-22T00:12:02.297Z,2.60
2018-06-22T00:14:30.654Z,2.37
2018-06-22T00:16:58.992Z,2.43
2018-06-22T00:19:27.047Z,2.60
2018-06-22T00:21:55.385Z,2.33
2018-06-22T00:24:23.733Z,2.37
2018-06-22T00:26:51.784Z,2.40
2018-06-22T00:29:20.122Z,2.80
2018-06-22T00:31:48.530Z,3.00
2018-06-22T00:34:16.882Z,2.80
2018-06-22T00:36:45.227Z,2.70
2018-06-22T00:39:13.606Z,3.20
2018-06-22T00:41:41.958Z,2.43
2018-06-22T00:44:10.361Z,3.23
2018-06-22T00:46:38.684Z,3.03
2018-06-22T00:49:07.033Z,2.67
2018-06-22T00:51:35.366Z,2.90
2018-06-22T00:54:12.631Z,2.77
2018-06-22T00:56:41.007Z,3.10
2018-06-22T00:59:09.443Z,3.20
2018-06-22T01:01:37.754Z,3.03
2018-06-22T01:04:06.332Z,3.33
2018-06-22T01:06:34.688Z,3.13
2018-06-22T01:09:04.734Z,3.60
2018-06-22T01:11:33.043Z,3.53
2018-06-22T01:14:01.403Z,3.50
2018-06-22T01:16:29.724Z,3.60
2018-06-22T01:18:58.044Z,3.57
2018-06-22T01:21:26.415Z,3.80
2018-06-22T01:23:54.830Z,3.77
2018-06-22T01:26:23.167Z,3.40
2018-06-22T01:28:55.427Z,3.40
2018-06-22T01:31:23.786Z,4.27
2018-06-22T01:33:52.112Z,3.73
2018-06-22T01:36:20.489Z,4.40
2018-06-22T01:38:48.839Z,4.17
2018-06-22T01:41:17.208Z,3.73
2018-06-22T01:43:45.563Z,4.67
2018-06-22T01:46:13.932Z,4.20
2018-06-22T01:48:42.298Z,3.90
2018-06-22T01:51:10.675Z,3.90
2018-06-22T01:53:39.003Z,3.77
2018-06-22T01:56:07.342Z,4.10
2018-06-22T01:58:35.678Z,3.77
2018-06-22T02:01:04.033Z,4.30
2018-06-22T02:03:32.527Z,3.83
2018-06-22T02:06:00.901Z,4.37
2018-06-22T02:08:29.247Z,4.07
2018-06-22T02:10:57.297Z,3.93
2018-06-22T02:13:25.614Z,4.13
2018-06-22T02:15:53.981Z,4.13
2018-06-22T02:18:22.280Z,4.30
2018-06-22T02:20:50.619Z,4.17
2018-06-22T02:23:19.048Z,4.47
2018-06-22T02:25:47.399Z,3.70
2018-06-22T02:28:15.739Z,4.73
2018-06-22T02:30:44.118Z,4.43
2018-06-22T02:33:12.435Z,4.87
2018-06-22T02:35:40.801Z,4.07
2018-06-22T02:38:09.175Z,4.90
2018-06-22T02:40:37.557Z,5.30
2018-06-22T02:43:06.004Z,5.03
2018-06-22T02:45:34.370Z,4.83
2018-06-22T02:48:02.737Z,5.87
2018-06-22T02:50:31.122Z,5.47
2018-06-22T02:52:59.469Z,5.53
2018-06-22T02:55:27.793Z,5.57
2018-06-22T02:57:56.180Z,5.53
2018-06-22T03:00:24.510Z,4.97
2018-06-22T03:02:53.265Z,5.37
2018-06-22T03:05:21.646Z,5.40
2018-06-22T03:07:50.051Z,5.47
2018-06-22T03:10:18.401Z,5.53
2018-06-22T03:12:46.749Z,5.53
2018-06-22T03:15:15.071Z,5.97
2018-06-22T03:17:43.456Z,6.63
2018-06-22T03:20:11.815Z,5.70
2018-06-22T03:22:40.166Z,5.47
2018-06-22T03:25:08.541Z,5.57
2018-06-22T03:27:36.871Z,5.73
2018-06-22T03:30:05.252Z,5.50
2018-06-22T03:32:33.620Z,5.60
2018-06-22T03:35:01.953Z,6.37
2018-06-22T03:37:30.291Z,5.87
2018-06-22T03:39:58.669Z,5.97
2018-06-22T03:42:27.016Z,5.20
2018-06-22T03:44:55.453Z,5.87
2018-06-22T03:47:23.738Z,6.07
2018-06-22T03:49:52.089Z,5.67
2018-06-22T03:52:20.450Z,5.30
2018-06-22T03:54:48.811Z,6.10
2018-06-22T03:57:17.117Z,5.33
2018-06-22T03:59:45.476Z,5.30
2018-06-22T04:02:13.518Z,5.60
2018-06-22T04:04:41.884Z,5.83
2018-06-22T04:07:10.569Z,5.27
2018-06-22T04:09:39.154Z,4.60
2018-06-22T04:12:07.495Z,5.40
2018-06-22T04:14:35.957Z,5.30
2018-06-22T04:17:04.276Z,5.33
2018-06-22T04:19:32.636Z,5.77
2018-06-22T04:22:00.970Z,6.27
2018-06-22T04:24:29.337Z,5.67
2018-06-22T04:26:58.496Z,5.10
2018-06-22T04:29:26.834Z,5.20
2018-06-22T04:31:55.185Z,5.27
2018-06-22T04:34:23.534Z,4.97
2018-06-22T04:36:51.918Z,5.00
2018-06-22T04:39:20.254Z,4.93
2018-06-22T04:41:48.321Z,5.57
2018-06-22T04:44:16.675Z,4.80
2018-06-22T04:46:45.040Z,5.47
2018-06-22T04:49:13.404Z,4.33
2018-06-22T04:51:41.772Z,4.20
2018-06-22T04:54:10.101Z,4.17
2018-06-22T04:56:38.484Z,4.33
2018-06-22T04:59:06.819Z,4.07
2018-06-22T05:01:35.231Z,3.80
2018-06-22T05:04:03.590Z,3.77
2018-06-22T05:06:31.976Z,3.83
2018-06-22T05:09:00.302Z,3.70
2018-06-22T05:11:28.651Z,3.90
2018-06-22T05:13:56.984Z,4.47
2018-06-22T05:16:25.355Z,3.47
2018-06-22T05:18:53.696Z,3.20
2018-06-22T05:21:22.171Z,3.97
2018-06-22T05:23:50.555Z,3.27
2018-06-22T05:26:18.922Z,3.27
2018-06-22T05:28:47.261Z,3.00
2018-06-22T05:31:15.645Z,3.27
2018-06-22T05:33:43.976Z,2.90
2018-06-22T05:36:12.323Z,2.93
2018-06-22T05:38:40.755Z,2.93
2018-06-22T05:41:09.129Z,2.70
2018-06-22T05:43:37.509Z,2.77
2018-06-22T05:46:05.925Z,2.37
2018-06-22T05:48:34.277Z,2.60
2018-06-22T05:51:02.660Z,2.60
2018-06-22T05:53:31.004Z,2.43
2018-06-22T05:55:59.347Z,2.30
2018-06-22T05:58:27.704Z,2.03
2018-06-22T06:00:56.038Z,2.40
2018-06-22T06:03:24.446Z,2.37
2018-06-22T06:05:52.773Z,2.33
2018-06-22T06:08:21.182Z,2.50
2018-06-22T06:10:49.518Z,2.80
2018-06-22T06:13:17.900Z,2.50
2018-06-22T06:15:46.274Z,2.47
2018-06-22T06:18:14.601Z,2.40
2018-06-22T06:20:42.924Z,2.83
2018-06-22T06:23:11.262Z,2.40
2018-06-22T06:25:39.633Z,2.67
2018-06-22T06:28:07.958Z,2.53
2018-06-22T06:30:36.371Z,2.37
2018-06-22T06:33:04.639Z,2.10
2018-06-22T06:35:32.982Z,2.77
2018-06-22T06:38:01.326Z,1.90
2018-06-22T06:40:29.692Z,2.73
2018-06-22T06:42:57.775Z,2.40
2018-06-22T06:45:25.880Z,2.57
2018-06-22T06:47:54.202Z,2.07
2018-06-22T06:50:22.570Z,1.70
2018-06-22T06:52:50.940Z,1.70
2018-06-22T06:55:19.329Z,1.70
2018-06-22T06:57:47.845Z,1.50
2018-06-22T07:00:16.193Z,1.77
2018-06-22T07:02:44.578Z,1.97
2018-06-22T07:05:12.929Z,1.73
2018-06-22T07:07:41.302Z,1.63
2018-06-22T07:10:09.657Z,1.97
2018-06-22T07:12:38.020Z,1.17
2018-06-22T07:15:06.379Z,2.57
2018-06-22T07:17:34.709Z,1.90
2018-06-22T07:20:03.086Z,1.67
2018-06-22T07:22:31.448Z,2.63
2018-06-22T07:24:59.783Z,1.90
2018-06-22T07:27:28.161Z,2.47
2018-06-22T07:29:56.576Z,2.13
2018-06-22T07:32:25.045Z,2.23
2018-06-22T07:34:53.519Z,1.47
2018-06-22T07:37:21.922Z,1.80
2018-06-22T07:39:50.282Z,1.20
2018-06-22T07:42:18.672Z,1.20
2018-06-22T07:44:47.042Z,2.00
2018-06-22T07:47:15.400Z,1.83
2018-06-22T07:49:43.442Z,1.37
2018-06-22T07:52:11.824Z,1.77
2018-06-22T07:54:40.175Z,1.65
2018-06-22T07:57:08.583Z,1.30
2018-06-22T07:59:36.890Z,1.93
2018-06-22T08:30:12.598Z,1.42
2018-06-22T08:58:58.347Z,1.70
2018-06-22T09:01:26.785Z,1.20
2018-06-22T09:03:55.971Z,1.72
2018-06-22T09:06:25.543Z,1.20
2018-06-22T09:08:54.313Z,2.22
2018-06-22T09:11:22.871Z,2.70
2018-06-22T09:13:52.092Z,1.57
2018-06-22T09:16:23.228Z,2.25
2018-06-22T09:18:51.896Z,1.62
2018-06-22T09:21:21.161Z,2.05
2018-06-22T09:23:49.839Z,1.25
2018-06-22T09:26:18.494Z,1.57
2018-06-22T09:28:47.002Z,1.50
2018-06-22T09:31:15.527Z,1.32
2018-06-22T09:33:44.979Z,1.10
2018-06-22T09:36:14.012Z,1.45
2018-06-22T09:38:42.881Z,1.35
2018-06-22T09:41:11.573Z,1.35
2018-06-22T09:43:40.265Z,1.62
2018-06-22T09:46:09.887Z,1.85
2018-06-22T09:48:38.808Z,1.42
2018-06-22T09:51:07.392Z,1.30
2018-06-22T09:53:35.893Z,1.32
2018-06-22T09:56:04.554Z,1.25
2018-06-22T09:58:32.953Z,1.07
2018-06-22T10:01:02.149Z,0.90
2018-06-22T10:03:30.696Z,1.62
2018-06-22T10:05:59.414Z,1.47
2018-06-22T10:08:27.862Z,1.70
2018-06-22T10:10:56.329Z,1.40
2018-06-22T10:13:24.776Z,1.77
2018-06-22T10:15:54.036Z,1.77
2018-06-22T10:18:23.882Z,1.80
2018-06-22T10:20:52.724Z,1.47
2018-06-22T10:23:23.636Z,1.47
2018-06-22T10:26:12.810Z,1.10
2018-06-22T10:34:09.167Z,1.32
2018-06-22T10:36:38.317Z,2.27
2018-06-22T10:39:10.025Z,1.65
2018-06-22T10:41:38.597Z,1.37
2018-06-22T10:44:07.633Z,1.27
2018-06-22T10:46:36.159Z,1.60
2018-06-22T10:49:04.959Z,1.20
2018-06-22T10:51:33.558Z,1.32
2018-06-22T10:54:02.248Z,1.70
2018-06-22T10:56:32.592Z,1.50
2018-06-22T10:59:01.572Z,1.75
2018-06-22T11:01:31.006Z,1.62
2018-06-22T11:03:59.572Z,1.50
2018-06-22T11:06:28.025Z,1.45
2018-06-22T11:08:56.554Z,1.12
2018-06-22T11:11:25.056Z,1.30
2018-06-22T11:13:53.657Z,0.90
2018-06-22T11:16:22.905Z,1.07
2018-06-22T11:18:51.476Z,1.40
2018-06-22T11:21:20.052Z,1.17
2018-06-22T11:23:48.615Z,1.30
2018-06-22T11:26:17.329Z,1.55
2018-06-22T11:28:45.817Z,1.72
2018-06-22T11:31:19.930Z,1.70
2018-06-22T11:33:48.436Z,1.17
2018-06-22T11:36:17.111Z,1.35
2018-06-22T11:38:55.877Z,1.47
2018-06-22T12:39:20.916Z,1.70
2018-06-22T13:01:44.635Z,1.10
2018-06-22T13:04:17.063Z,1.25
2018-06-22T13:06:46.503Z,1.90
2018-06-22T13:09:15.864Z,1.30
2018-06-22T13:11:51.538Z,1.42
2018-06-22T13:14:25.671Z,1.50
2018-06-22T13:37:32.135Z,1.25
2018-06-22T13:40:06.663Z,1.57
2018-06-22T13:57:33.623Z,4.55
2018-06-22T14:26:25.951Z,1.32
2018-06-22T14:43:22.415Z,1.57
2018-06-22T14:45:55.396Z,1.20
2018-06-22T14:48:39.582Z,1.25
2018-06-22T14:54:56.281Z,1.70
2018-06-22T14:57:44.850Z,2.08
2018-06-22T15:00:18.912Z,1.57
2018-06-22T15:11:55.836Z,1.72
2018-06-22T15:14:25.295Z,1.55
2018-06-22T15:20:05.259Z,2.70
2018-06-22T15:39:23.662Z,1.60
2018-06-22T15:42:05.337Z,1.40
2018-06-22T16:36:41.733Z,1.98
2018-06-22T16:54:36.959Z,2.02
2018-06-22T17:00:24.968Z,2.12
2018-06-22T17:03:37.229Z,1.80
2018-06-22T17:07:00.955Z,2.87
2018-06-22T18:44:03.225Z,2.40
2018-06-22T18:46:31.739Z,2.30
2018-06-22T18:49:00.191Z,2.03
2018-06-22T18:51:28.674Z,2.20
2018-06-22T18:54:02.730Z,2.83
2018-06-22T18:56:36.702Z,2.50
2018-06-22T18:59:15.957Z,2.67
2018-06-22T19:01:49.750Z,1.90
2018-06-22T19:04:18.312Z,2.30
2018-06-22T19:06:47.038Z,2.30
2018-06-22T19:09:15.551Z,2.50
2018-06-22T19:11:44.122Z,2.53
2018-06-22T19:14:13.160Z,3.03
2018-06-22T19:16:41.747Z,2.77
2018-06-22T19:19:13.346Z,2.47
2018-06-22T19:21:47.594Z,2.50
2018-06-22T19:24:18.868Z,3.33
2018-06-22T19:26:50.438Z,2.60
2018-06-22T19:29:21.589Z,2.70
2018-06-22T19:31:50.127Z,2.40
2018-06-22T19:34:22.796Z,3.07
2018-06-22T19:36:52.108Z,3.20
2018-06-22T19:39:20.640Z,3.10
2018-06-22T19:41:50.185Z,3.43
2018-06-22T19:44:24.036Z,2.60
2018-06-22T19:46:57.915Z,2.60
2018-06-22T19:49:31.599Z,2.80
2018-06-22T19:52:05.343Z,2.97
2018-06-22T19:54:34.070Z,3.27
2018-06-22T19:57:02.554Z,2.73
2018-06-22T19:59:31.803Z,2.83
2018-06-22T20:02:00.377Z,3.30
2018-06-22T20:04:29.048Z,3.00
2018-06-22T20:06:57.565Z,3.47
2018-06-22T20:09:26.176Z,3.40
2018-06-22T20:11:54.858Z,3.63
2018-06-22T20:14:23.849Z,3.43
2018-06-22T20:16:53.033Z,2.90
2018-06-22T20:19:23.730Z,2.73
2018-06-22T20:21:52.324Z,3.73
2018-06-22T20:26:31.343Z,2.80
2018-06-22T20:28:59.753Z,2.73
2018-06-22T20:31:33.735Z,3.20
2018-06-22T20:34:07.596Z,3.17
2018-06-22T20:36:41.305Z,3.33
2018-06-22T20:39:15.052Z,3.47
2018-06-22T20:41:48.842Z,3.20
2018-06-22T20:44:24.923Z,3.20
2018-06-22T20:46:59.706Z,3.67
2018-06-22T20:49:33.561Z,4.00
2018-06-22T20:52:03.265Z,3.70
2018-06-22T20:54:32.714Z,3.67
2018-06-22T20:57:01.273Z,3.90
2018-06-22T20:59:29.763Z,3.87
2018-06-22T21:01:58.316Z,3.50
2018-06-22T21:04:26.822Z,3.53
2018-06-22T21:06:55.671Z,3.37
2018-06-22T21:09:24.224Z,3.37
2018-06-22T21:11:52.764Z,3.47
2018-06-22T21:14:21.302Z,3.50
2018-06-22T21:16:49.852Z,3.60
2018-06-22T21:19:18.319Z,3.60
2018-06-22T21:21:52.173Z,3.30
2018-06-22T21:24:20.715Z,3.60
2018-06-22T21:26:49.244Z,3.30
2018-06-22T21:29:23.044Z,3.37
2018-06-22T21:31:56.802Z,3.30
2018-06-22T21:34:32.944Z,3.77
2018-06-22T21:37:06.676Z,3.50
2018-06-22T21:39:35.284Z,3.37
2018-06-22T21:42:04.084Z,3.60
2018-06-22T21:44:32.916Z,5.40
2018-06-22T21:47:01.575Z,6.90
2018-06-22T21:49:30.197Z,8.87
2018-06-22T21:51:58.791Z,8.83
2018-06-22T21:54:27.433Z,9.50
2018-06-22T21:56:56.056Z,5.20
2018-06-22T21:59:24.557Z,4.67
2018-06-22T22:01:53.153Z,5.17
2018-06-22T22:04:21.805Z,5.07
2018-06-22T22:06:50.518Z,4.90
2018-06-22T22:09:20.656Z,4.07
2018-06-22T22:11:54.939Z,4.13
2018-06-22T22:14:25.026Z,4.80
2018-06-22T22:16:53.510Z,4.90
2018-06-22T22:19:22.140Z,4.27
2018-06-22T22:21:50.651Z,6.10
2018-06-22T22:24:19.233Z,5.13
2018-06-22T22:26:47.873Z,6.03
2018-06-22T22:29:16.413Z,5.93
2018-06-22T22:31:45.157Z,5.80
2018-06-22T22:34:13.741Z,5.53
2018-06-22T22:36:42.657Z,5.23
2018-06-22T22:39:11.726Z,5.07
2018-06-22T22:41:40.393Z,4.90
2018-06-22T22:44:09.866Z,5.10
2018-06-22T22:46:38.836Z,5.00
2018-06-22T22:49:07.609Z,5.17
2018-06-22T22:51:36.246Z,5.47
2018-06-22T22:54:05.076Z,5.73
2018-06-22T22:56:33.741Z,5.77
2018-06-22T22:59:02.429Z,6.10
2018-06-22T23:01:31.039Z,5.30
2018-06-22T23:03:59.864Z,5.63
2018-06-22T23:06:29.148Z,5.33
2018-06-22T23:08:57.830Z,5.00
2018-06-22T23:11:26.681Z,5.07
2018-06-22T23:13:55.853Z,5.47
2018-06-22T23:16:25.669Z,5.67
2018-06-22T23:18:55.610Z,5.53
2018-06-22T23:21:24.365Z,5.83
2018-06-22T23:23:53.058Z,5.87
2018-06-22T23:26:21.777Z,5.47
2018-06-22T23:28:50.380Z,5.47
2018-06-22T23:31:19.042Z,5.90
2018-06-22T23:33:47.687Z,5.80
2018-06-22T23:36:16.389Z,5.47
2018-06-22T23:38:45.063Z,5.60
2018-06-22T23:41:13.749Z,6.60
2018-06-22T23:43:42.402Z,5.67
2018-06-22T23:46:11.145Z,6.00
2018-06-22T23:48:54.908Z,6.20
2018-06-22T23:51:33.406Z,6.00
2018-06-22T23:54:17.642Z,6.17
2018-06-22T23:57:01.189Z,6.10
